Météo Nord-Pas-de-Calais   La météo au plus près de chez vous

Station météorologique

Observations météo à Dunkerque (59183)

59183001 11 m Dernier relevé à 15:24
20.6°C
Humidité 75 % Vent 10.4 km/h 1020.8 hPa

Journée consultée

Mercredi 2 Septembre 2026

Synthèse de la journée

Périodes de référence en UTC

Température maximale

20.8°C

à 13:12

06h 06h

Température minimale

15.5°C

à 07:24

18h 18h

Rafale maximale

35 km/h

à 13:54

00h 00h

Précipitations

0 mm

Cumul quotidien

06h 06h

Graphiques de la journée

Heure locale Réduire

Données détaillées

Relevés météo

Pas de 6 minutes Afficher les relevés infra-horaires
Relevés météo détaillés à Dunkerque pour le Mercredi 2 Septembre 2026
Heure Température °C Point de rosée °C Humidité % Vent moyen (raf.), km/h Précipitations mm Pression hPa Nébulosité Octas
15:24 20.6 °C 14 °C 66 % 17 km/h (33 km/h) 0 mm0 mm 1020.6 hPa
15:18 20.6 °C 14 °C 66 % 16 km/h (30 km/h) 0 mm0 mm 1020.6 hPa
15:12 20.8 °C 14.4 °C 67 % 17 km/h (28 km/h) 0 mm0 mm 1020.7 hPa
15:06 20.3 °C 14.9 °C 71 % 14 km/h (27 km/h) 0 mm0 mm 1020.8 hPa
15:00 20.1 °C 14.7 °C 71 % 14 km/h (29 km/h) 0 mm0 mm 1020.8 hPa
14:54 20 °C 14.4 °C 70 % 16 km/h (29 km/h) 0 mm0 mm 1020.8 hPa
14:48 20.2 °C 14.3 °C 69 % 17 km/h (28 km/h) 0 mm0 mm 1020.8 hPa
14:42 20 °C 13.9 °C 68 % 16 km/h (24 km/h) 0 mm0 mm 1020.7 hPa
14:36 20.2 °C 15 °C 72 % 14 km/h (22 km/h) 0 mm0 mm 1020.8 hPa
14:30 20.2 °C 15.2 °C 73 % 11 km/h (20 km/h) 0 mm0 mm 1020.8 hPa
14:24 19.8 °C 15.2 °C 75 % 10 km/h (19 km/h) 0 mm0 mm 1020.8 hPa
14:18 19.5 °C 15.6 °C 78 % 13 km/h (20 km/h) 0 mm0 mm 1020.9 hPa
14:12 19 °C 15.5 °C 80 % 15 km/h (27 km/h) 0 mm0 mm 1020.9 hPa
14:06 18.7 °C 15.2 °C 80 % 19 km/h (32 km/h) 0 mm0 mm 1021 hPa
14:00 19 °C 15.3 °C 79 % 23 km/h (35 km/h) 0 mm0 mm 1021 hPa 8 Octas
13:54 19.5 °C 15.2 °C 76 % 20 km/h (35 km/h) 0 mm0 mm 1021 hPa
13:48 20 °C 14.8 °C 72 % 19 km/h (32 km/h) 0 mm0 mm 1021.1 hPa
13:42 20.3 °C 14.9 °C 71 % 17 km/h (32 km/h) 0 mm0 mm 1021 hPa
13:36 20.2 °C 14.3 °C 69 % 13 km/h (27 km/h) 0 mm0 mm 1021 hPa
13:30 20.3 °C 14 °C 67 % 14 km/h (26 km/h) 0 mm0 mm 1020.9 hPa
13:24 20.5 °C 14.2 °C 67 % 16 km/h (27 km/h) 0 mm0 mm 1021 hPa
13:18 20.6 °C 14 °C 66 % 16 km/h (27 km/h) 0 mm0 mm 1021 hPa
13:12 20.8 °C 14 °C 65 % 16 km/h (27 km/h) 0 mm0 mm 1021 hPa
13:06 20.5 °C 14.2 °C 67 % 16 km/h (30 km/h) 0 mm0 mm 1021.1 hPa
13:00 20.7 °C 14.6 °C 68 % 15 km/h (30 km/h) 0 mm0 mm 1021.1 hPa
12:54 20.2 °C 14.1 °C 68 % 17 km/h (33 km/h) 0 mm0 mm 1021.2 hPa
12:48 20.1 °C 14.7 °C 71 % 19 km/h (33 km/h) 0 mm0 mm 1021.2 hPa
12:42 19.8 °C 14.8 °C 73 % 18 km/h (30 km/h) 0 mm0 mm 1021.3 hPa
12:36 19.7 °C 15.1 °C 75 % 17 km/h (30 km/h) 0 mm0 mm 1021.3 hPa
12:30 19.5 °C 15.6 °C 78 % 15 km/h (27 km/h) 0 mm0 mm 1021.3 hPa
12:24 19.2 °C 15.9 °C 81 % 14 km/h (23 km/h) 0 mm0 mm 1021.3 hPa
12:18 18.8 °C 15.5 °C 81 % 13 km/h (21 km/h) 0 mm0 mm 1021.4 hPa
12:12 18.5 °C 15.4 °C 82 % 13 km/h (19 km/h) 0 mm0 mm 1021.5 hPa
12:06 18.4 °C 15.5 °C 83 % 14 km/h (21 km/h) 0 mm0 mm 1021.3 hPa
12:00 18.2 °C 15.3 °C 83 % 15 km/h (21 km/h) 0 mm0 mm 1021.3 hPa
11:54 18.1 °C 15.2 °C 83 % 13 km/h (21 km/h) 0 mm0 mm 1021.3 hPa
11:48 18.2 °C 15.4 °C 84 % 16 km/h (23 km/h) 0 mm0 mm 1021.3 hPa
11:42 18.2 °C 15.6 °C 85 % 17 km/h (23 km/h) 0 mm0 mm 1021.3 hPa
11:36 18.2 °C 15.3 °C 83 % 18 km/h (24 km/h) 0 mm0 mm 1021.5 hPa
11:30 18.2 °C 15.3 °C 83 % 16 km/h (25 km/h) 0 mm0 mm 1021.4 hPa
11:24 18.4 °C 15.3 °C 82 % 14 km/h (24 km/h) 0 mm0 mm 1021.7 hPa
11:18 18.1 °C 15 °C 82 % 15 km/h (22 km/h) 0 mm0 mm 1021.6 hPa
11:12 18.1 °C 15.2 °C 83 % 16 km/h (22 km/h) 0 mm0 mm 1021.4 hPa
11:06 18.1 °C 15.2 °C 83 % 16 km/h (22 km/h) 0 mm0 mm 1021.5 hPa
11:00 18.1 °C 15 °C 82 % 16 km/h (26 km/h) 0 mm0 mm 1021.3 hPa
10:54 18.1 °C 14.8 °C 81 % 16 km/h (24 km/h) 0 mm0 mm 1021.2 hPa
10:48 18.2 °C 14.7 °C 80 % 16 km/h (23 km/h) 0 mm0 mm 1021.2 hPa
10:42 18.2 °C 14.9 °C 81 % 17 km/h (24 km/h) 0 mm0 mm 1021.1 hPa
10:36 18.3 °C 14.8 °C 80 % 15 km/h (24 km/h) 0 mm0 mm 1021.1 hPa
10:30 18.2 °C 14.7 °C 80 % 15 km/h (24 km/h) 0 mm0 mm 1021 hPa
10:24 18.4 °C 15.3 °C 82 % 15 km/h (24 km/h) 0 mm0 mm 1021.1 hPa
10:18 18.5 °C 15.4 °C 82 % 17 km/h (26 km/h) 0 mm0 mm 1020.9 hPa
10:12 18.6 °C 15.5 °C 82 % 15 km/h (26 km/h) 0 mm0 mm 1020.7 hPa
10:06 18.6 °C 15.3 °C 81 % 16 km/h (24 km/h) 0 mm0 mm 1020.7 hPa
10:00 18.8 °C 15.3 °C 80 % 17 km/h (24 km/h) 0 mm0 mm 1020.8 hPa
09:54 19.1 °C 15.6 °C 80 % 14 km/h (23 km/h) 0 mm0 mm 1020.7 hPa
09:48 19.3 °C 15.6 °C 79 % 14 km/h (23 km/h) 0 mm0 mm 1020.7 hPa
09:42 19.5 °C 15.8 °C 79 % 14 km/h (23 km/h) 0 mm0 mm 1020.6 hPa
09:36 19.1 °C 15.8 °C 81 % 13 km/h (19 km/h) 0 mm0 mm 1020.7 hPa
09:30 19 °C 15.5 °C 80 % 15 km/h (21 km/h) 0 mm0 mm 1020.7 hPa
09:24 18.8 °C 15.7 °C 82 % 13 km/h (21 km/h) 0 mm0 mm 1020.5 hPa
09:18 18.4 °C 15.5 °C 83 % 14 km/h (20 km/h) 0 mm0 mm 1020.4 hPa
09:12 18.2 °C 15.6 °C 85 % 14 km/h (20 km/h) 0 mm0 mm 1020.5 hPa
09:06 18 °C 15.4 °C 85 % 12 km/h (18 km/h) 0 mm0 mm 1020.4 hPa
09:00 17.5 °C 15.5 °C 88 % 12 km/h (17 km/h) 0 mm0 mm 1020.3 hPa
08:54 17.1 °C 15.1 °C 88 % 13 km/h (18 km/h) 0 mm0 mm 1020.3 hPa
08:48 16.8 °C 15 °C 89 % 12 km/h (18 km/h) 0 mm0 mm 1020.4 hPa
08:42 16.6 °C 14.8 °C 89 % 13 km/h (18 km/h) 0 mm0 mm 1020.4 hPa
08:36 16.4 °C 14.8 °C 90 % 11 km/h (17 km/h) 0 mm0 mm 1020.4 hPa
08:30 16.2 °C 14.6 °C 90 % 10 km/h (15 km/h) 0 mm0 mm 1020.4 hPa
08:24 16.1 °C 14.5 °C 90 % 11 km/h (15 km/h) 0 mm0 mm 1020.4 hPa
08:18 16 °C 14.5 °C 91 % 12 km/h (17 km/h) 0 mm0 mm 1020.5 hPa
08:12 15.9 °C 14.4 °C 91 % 13 km/h (18 km/h) 0 mm0 mm 1020.5 hPa
08:06 15.7 °C 14.2 °C 91 % 12 km/h (17 km/h) 0 mm0 mm 1020.4 hPa
08:00 15.7 °C 14.2 °C 91 % 13 km/h (18 km/h) 0 mm0 mm 1020.2 hPa
07:54 15.6 °C 14 °C 90 % 12 km/h (18 km/h) 0 mm0 mm 1020.2 hPa
07:48 15.7 °C 14.1 °C 90 % 11 km/h (16 km/h) 0 mm0 mm 1020.2 hPa
07:42 15.6 °C 14 °C 90 % 11 km/h (16 km/h) 0 mm0 mm 1020.1 hPa
07:36 15.6 °C 14 °C 90 % 12 km/h (18 km/h) 0 mm0 mm 1020.1 hPa
07:30 15.6 °C 14 °C 90 % 12 km/h (18 km/h) 0 mm0 mm 1020.1 hPa
07:24 15.5 °C 13.9 °C 90 % 10 km/h (16 km/h) 0 mm0 mm 1020.1 hPa
07:18 15.6 °C 14 °C 90 % 11 km/h (17 km/h) 0 mm0 mm 1020 hPa
07:12 15.6 °C 14 °C 90 % 12 km/h (17 km/h) 0 mm0 mm 1020 hPa
07:06 15.6 °C 14 °C 90 % 12 km/h (16 km/h) 0 mm0 mm 1020 hPa
07:00 15.7 °C 13.9 °C 89 % 12 km/h (17 km/h) 0 mm0 mm 1020 hPa
06:54 16 °C 14 °C 88 % 12 km/h (17 km/h) 0 mm0 mm 1020 hPa
06:48 16.2 °C 14.4 °C 89 % 12 km/h (17 km/h) 0 mm0 mm 1020.1 hPa
06:42 15.9 °C 14.1 °C 89 % 12 km/h (17 km/h) 0 mm0 mm 1020.1 hPa
06:36 15.9 °C 14.1 °C 89 % 13 km/h (19 km/h) 0 mm0 mm 1020.1 hPa
06:30 15.8 °C 14 °C 89 % 12 km/h (17 km/h) 0 mm0 mm 1020.1 hPa
06:24 15.8 °C 14 °C 89 % 11 km/h (15 km/h) 0 mm0 mm 1020 hPa
06:18 15.8 °C 14 °C 89 % 13 km/h (18 km/h) 0 mm0 mm 1019.9 hPa
06:12 15.8 °C 14 °C 89 % 13 km/h (18 km/h) 0 mm0 mm 1019.8 hPa
06:06 15.8 °C 14 °C 89 % 12 km/h (18 km/h) 0 mm0 mm 1019.9 hPa
06:00 15.9 °C 14.1 °C 89 % 13 km/h (18 km/h) 0 mm0 mm 1019.9 hPa
05:54 15.9 °C 13.9 °C 88 % 13 km/h (18 km/h) 0 mm0 mm 1019.9 hPa
05:48 16 °C 14 °C 88 % 13 km/h (18 km/h) 0 mm0 mm 1019.9 hPa
05:42 16 °C 13.8 °C 87 % 11 km/h (18 km/h) 0 mm0 mm 1019.9 hPa
05:36 16.1 °C 14.1 °C 88 % 12 km/h (17 km/h) 0 mm0 mm 1020 hPa
05:30 16.2 °C 14.2 °C 88 % 12 km/h (17 km/h) 0 mm0 mm 1020 hPa
05:24 16.1 °C 14.1 °C 88 % 12 km/h (18 km/h) 0 mm0 mm 1020 hPa
05:18 16 °C 14 °C 88 % 13 km/h (18 km/h) 0 mm0 mm 1020 hPa
05:12 16 °C 14 °C 88 % 13 km/h (18 km/h) 0 mm0 mm 1019.9 hPa
05:06 16 °C 14 °C 88 % 12 km/h (18 km/h) 0 mm0 mm 1019.9 hPa
05:00 16.1 °C 13.9 °C 87 % 12 km/h (18 km/h) 0 mm0 mm 1019.8 hPa 5 Octas
04:54 16.1 °C 13.9 °C 87 % 12 km/h (18 km/h) 0 mm0 mm 1019.9 hPa
04:48 16.2 °C 14 °C 87 % 13 km/h (18 km/h) 0 mm0 mm 1020 hPa
04:42 16.2 °C 13.9 °C 86 % 13 km/h (18 km/h) 0 mm0 mm 1020.1 hPa
04:36 16.5 °C 13.8 °C 84 % 12 km/h (18 km/h) 0 mm0 mm 1020.1 hPa
04:30 16.9 °C 14 °C 83 % 10 km/h (15 km/h) 0 mm0 mm 1020.1 hPa
04:24 17.3 °C 14.2 °C 82 % 10 km/h (16 km/h) 0 mm0 mm 1020.1 hPa
04:18 17.2 °C 14.3 °C 83 % 12 km/h (17 km/h) 0 mm0 mm 1020.2 hPa
04:12 17 °C 14.3 °C 84 % 12 km/h (18 km/h) 0 mm0 mm 1020.3 hPa
04:06 16.9 °C 14.4 °C 85 % 13 km/h (18 km/h) 0 mm0 mm 1020.4 hPa
04:00 16.9 °C 14.4 °C 85 % 13 km/h (18 km/h) 0 mm0 mm 1020.4 hPa
03:54 16.9 °C 14.5 °C 86 % 13 km/h (18 km/h) 0 mm0 mm 1020.3 hPa
03:48 16.5 °C 14.3 °C 87 % 13 km/h (18 km/h) 0 mm0 mm 1020.4 hPa
03:42 16.3 °C 14 °C 86 % 14 km/h (19 km/h) 0 mm0 mm 1020.4 hPa
03:36 16.3 °C 14 °C 86 % 14 km/h (19 km/h) 0 mm0 mm 1020.4 hPa
03:30 16.4 °C 14.1 °C 86 % 14 km/h (19 km/h) 0 mm0 mm 1020.4 hPa
03:24 16.3 °C 14 °C 86 % 15 km/h (19 km/h) 0 mm0 mm 1020.4 hPa
03:18 16.2 °C 13.9 °C 86 % 15 km/h (19 km/h) 0 mm0 mm 1020.4 hPa
03:12 16.1 °C 13.8 °C 86 % 14 km/h (20 km/h) 0 mm0 mm 1020.4 hPa
03:06 16.2 °C 13.9 °C 86 % 13 km/h (18 km/h) 0 mm0 mm 1020.3 hPa
03:00 16.1 °C 13.8 °C 86 % 13 km/h (19 km/h) 0 mm0 mm 1020.4 hPa
02:54 16 °C 13.7 °C 86 % 13 km/h (19 km/h) 0 mm0 mm 1020.5 hPa
02:48 16 °C 13.5 °C 85 % 13 km/h (18 km/h) 0 mm0 mm 1020.5 hPa
02:42 16 °C 13.7 °C 86 % 14 km/h (19 km/h) 0 mm0 mm 1020.5 hPa
02:36 16 °C 13.5 °C 85 % 14 km/h (21 km/h) 0 mm0 mm 1020.5 hPa
02:30 16.1 °C 13.6 °C 85 % 14 km/h (21 km/h) 0 mm0 mm 1020.5 hPa
02:24 16 °C 13.5 °C 85 % 14 km/h (19 km/h) 0 mm0 mm 1020.5 hPa
02:18 16 °C 13.5 °C 85 % 13 km/h (18 km/h) 0 mm0 mm 1020.4 hPa
02:12 16 °C 13.5 °C 85 % 13 km/h (18 km/h) 0 mm0 mm 1020.5 hPa
02:06 16 °C 13.3 °C 84 % 13 km/h (18 km/h) 0 mm0 mm 1020.5 hPa
02:00 16.1 °C 13.4 °C 84 % 13 km/h (18 km/h) 0 mm0 mm 1020.5 hPa
01:54 16.1 °C 13.4 °C 84 % 13 km/h (17 km/h) 0 mm0 mm 1020.4 hPa
01:48 16.1 °C 13.4 °C 84 % 13 km/h (17 km/h) 0 mm0 mm 1020.4 hPa
01:42 16 °C 13.1 °C 83 % 13 km/h (18 km/h) 0 mm0 mm 1020.5 hPa
01:36 16.1 °C 13.4 °C 84 % 13 km/h (18 km/h) 0 mm0 mm 1020.5 hPa
01:30 16.1 °C 13.4 °C 84 % 14 km/h (18 km/h) 0 mm0 mm 1020.6 hPa
01:24 16.1 °C 13.2 °C 83 % 15 km/h (20 km/h) 0 mm0 mm 1020.7 hPa
01:18 16.1 °C 13.2 °C 83 % 15 km/h (20 km/h) 0 mm0 mm 1020.8 hPa
01:12 16.2 °C 13.3 °C 83 % 14 km/h (20 km/h) 0 mm0 mm 1020.8 hPa
01:06 16.2 °C 13.3 °C 83 % 14 km/h (20 km/h) 0 mm0 mm 1020.8 hPa
01:00 16.2 °C 13.1 °C 82 % 14 km/h (19 km/h) 0 mm0 mm 1020.8 hPa
00:54 16.3 °C 13.2 °C 82 % 14 km/h (19 km/h) 0 mm0 mm 1020.8 hPa
00:48 16.2 °C 13.1 °C 82 % 13 km/h (19 km/h) 0 mm0 mm 1020.8 hPa
00:42 16.2 °C 13.1 °C 82 % 13 km/h (19 km/h) 0 mm0 mm 1020.9 hPa
00:36 16.2 °C 13.1 °C 82 % 13 km/h (19 km/h) 0 mm0 mm 1020.9 hPa
00:30 16.3 °C 13 °C 81 % 13 km/h (19 km/h) 0 mm0 mm 1020.9 hPa
00:24 16.5 °C 13.2 °C 81 % 13 km/h (19 km/h) 0 mm0 mm 1020.8 hPa
00:18 16.5 °C 13.2 °C 81 % 13 km/h (18 km/h) 0 mm0 mm 1020.9 hPa
00:12 16.4 °C 13.1 °C 81 % 13 km/h (19 km/h) 0 mm0 mm 1020.9 hPa
00:06 16.4 °C 13.1 °C 81 % 13 km/h (19 km/h) 0 mm0 mm 1020.8 hPa
00:00 16.4 °C 12.9 °C 80 % 13 km/h (17 km/h) 0 mm0 mm 1020.8 hPa

Données via Météo-France

Relevés météo à Dunkerque

Cette page rassemble les observations de la station de Dunkerque : température, humidité, vent, précipitations et pression atmosphérique. Les graphiques facilitent le suivi de la journée, tandis que le tableau donne accès aux mesures horaires et infra-horaires disponibles.

Pour replacer ces mesures dans leur contexte, consultez la climatologie de Dunkerque ainsi que ses normales et records. Retrouvez aussi la carte des observations météo en temps réel.